Time;durP1;ratioP1;P1;durP2;ratioP2;P2;SDS_P1;SDS_P2;PMS_P1;PMS_P2;Temp;Humidity;BMP_temperature;BMP_pressure;BME280_temperature;BME280_humidity;BME280_pressure;Samples;Min_cycle;Max_cycle;Signal;HPM_P1;HPM_P2
2022/06/16 00:01:54;;;;;;;16.95;3.45;;;;;;;;;;5032203;28;20503;-79
2022/06/16 00:04:21;;;;;;;12.57;2.88;;;;;;;;;;5032487;28;20072;-79
2022/06/16 00:06:47;;;;;;;15.30;2.58;;;;;;;;;;5031484;28;20030;-79
2022/06/16 00:09:13;;;;;;;11.65;3.00;;;;;;;;;;5031723;28;20041;-79
2022/06/16 00:11:39;;;;;;;16.05;2.88;;;;;;;;;;5030944;28;20030;-79
2022/06/16 00:14:05;;;;;;;18.55;3.60;;;;;;;;;;5014029;28;20018;-79
2022/06/16 00:16:31;;;;;;;14.45;3.47;;;;;;;;;;5026913;28;20057;-79
2022/06/16 00:18:57;;;;;;;20.00;3.17;;;;;;;;;;5027296;28;20111;-79
2022/06/16 00:21:23;;;;;;;17.33;3.15;;;;;;;;;;5029293;28;20077;-79
2022/06/16 00:23:49;;;;;;;17.20;2.88;;;;;;;;;;5022681;28;20112;-79
2022/06/16 00:26:20;;;;;;;17.75;4.00;;;;;;;;;;5030413;28;20586;-79
2022/06/16 00:28:46;;;;;;;17.40;3.53;;;;;;;;;;5031203;28;20087;-78
2022/06/16 00:31:13;;;;;;;15.13;3.28;;;;;;;;;;5031121;28;20723;-79
2022/06/16 00:33:40;;;;;;;18.65;3.95;;;;;;;;;;5031730;28;20022;-79
2022/06/16 00:36:06;;;;;;;18.73;3.40;;;;;;;;;;5024060;28;20111;-79
2022/06/16 00:38:32;;;;;;;18.75;3.35;;;;;;;;;;5012197;28;20041;-79
2022/06/16 00:40:58;;;;;;;13.38;2.85;;;;;;;;;;5028761;28;20038;-79
2022/06/16 00:43:24;;;;;;;19.67;3.15;;;;;;;;;;5021470;28;20034;-79
2022/06/16 00:45:50;;;;;;;15.85;3.03;;;;;;;;;;5026111;28;20040;-79
2022/06/16 00:48:19;;;;;;;17.02;3.22;;;;;;;;;;5026562;28;20034;-78
2022/06/16 00:50:47;;;;;;;19.33;2.85;;;;;;;;;;5025928;28;20132;-78
2022/06/16 00:53:13;;;;;;;12.52;2.95;;;;;;;;;;5014466;28;20030;-79
2022/06/16 00:55:39;;;;;;;11.45;3.13;;;;;;;;;;5019134;28;20745;-79
2022/06/16 00:58:07;;;;;;;13.07;3.22;;;;;;;;;;5025686;28;20051;-79
2022/06/16 01:00:36;;;;;;;16.00;3.88;;;;;;;;;;5027892;28;20042;-79
2022/06/16 01:03:02;;;;;;;14.45;3.15;;;;;;;;;;5020236;28;20029;-79
2022/06/16 01:05:28;;;;;;;16.42;2.92;;;;;;;;;;5014318;28;20061;-79
2022/06/16 01:07:56;;;;;;;16.90;2.97;;;;;;;;;;5029149;28;20378;-79
2022/06/16 01:10:22;;;;;;;15.05;2.83;;;;;;;;;;5021457;28;20069;-79
2022/06/16 01:15:39;;;;;;;20.23;3.45;;;;;;;;;;5030294;28;20045;-79
2022/06/16 01:18:11;;;;;;;8.85;2.90;;;;;;;;;;5015792;28;20037;-79
2022/06/16 01:20:52;;;;;;;18.70;3.03;;;;;;;;;;5029004;28;20770;-79
2022/06/16 01:23:21;;;;;;;15.98;2.97;;;;;;;;;;5028719;28;20057;-79
2022/06/16 01:25:50;;;;;;;18.80;3.15;;;;;;;;;;5011539;28;20685;-79
2022/06/16 01:28:22;;;;;;;22.30;3.40;;;;;;;;;;5026559;28;20095;-79
2022/06/16 01:30:48;;;;;;;19.20;3.97;;;;;;;;;;5017108;28;20033;-79
2022/06/16 01:33:35;;;;;;;19.10;2.92;;;;;;;;;;5026967;28;21216;-79
2022/06/16 01:36:20;;;;;;;18.52;3.33;;;;;;;;;;5026378;28;20112;-79
2022/06/16 01:38:53;;;;;;;13.48;2.35;;;;;;;;;;5013611;28;20061;-79
2022/06/16 01:41:19;;;;;;;16.88;3.17;;;;;;;;;;5014846;28;20026;-79
2022/06/16 01:43:51;;;;;;;19.08;3.30;;;;;;;;;;5029390;28;20448;-79
2022/06/16 01:46:23;;;;;;;18.23;3.38;;;;;;;;;;5029155;28;20080;-78
2022/06/16 01:48:51;;;;;;;18.33;2.85;;;;;;;;;;5018345;28;20061;-79
2022/06/16 01:51:22;;;;;;;12.18;2.97;;;;;;;;;;5029611;28;20057;-79
2022/06/16 01:54:09;;;;;;;13.85;2.80;;;;;;;;;;5018977;28;20902;-79
2022/06/16 01:56:41;;;;;;;15.02;2.75;;;;;;;;;;5019967;28;20038;-79
2022/06/16 01:59:09;;;;;;;18.08;2.75;;;;;;;;;;5029026;28;20374;-79
2022/06/16 02:01:39;;;;;;;17.17;2.63;;;;;;;;;;5029876;28;20033;-79
2022/06/16 02:04:07;;;;;;;17.88;2.97;;;;;;;;;;5028275;28;20045;-79
2022/06/16 02:06:38;;;;;;;19.00;3.47;;;;;;;;;;5017634;28;20034;-79
2022/06/16 02:09:10;;;;;;;17.77;2.90;;;;;;;;;;5028876;28;20037;-79
2022/06/16 02:11:36;;;;;;;;;;;;;;;;;;5020210;28;20475;-79
2022/06/16 02:14:20;;;;;;;12.80;3.30;;;;;;;;;;5028657;28;19922;-79
2022/06/16 02:16:47;;;;;;;21.58;2.92;;;;;;;;;;5019098;28;20033;-78
2022/06/16 02:19:16;;;;;;;15.98;2.97;;;;;;;;;;5029280;28;20037;-79
2022/06/16 02:21:43;;;;;;;16.25;3.17;;;;;;;;;;5029393;28;20117;-79
2022/06/16 02:24:12;;;;;;;13.05;2.97;;;;;;;;;;5027554;28;20033;-79
2022/06/16 02:26:38;;;;;;;14.13;3.08;;;;;;;;;;5015163;28;20396;-79
2022/06/16 02:29:19;;;;;;;13.98;2.78;;;;;;;;;;5014062;28;20055;-79
2022/06/16 02:31:45;;;;;;;17.13;2.75;;;;;;;;;;5024426;28;20161;-79
2022/06/16 02:34:18;;;;;;;17.23;3.03;;;;;;;;;;5027783;28;20104;-79
2022/06/16 02:36:53;;;;;;;21.65;3.70;;;;;;;;;;5024232;28;20680;-79
2022/06/16 02:39:28;;;;;;;17.35;3.50;;;;;;;;;;5026496;28;20075;-79
2022/06/16 02:41:54;;;;;;;17.13;3.13;;;;;;;;;;5016672;28;20947;-79
2022/06/16 02:44:32;;;;;;;16.85;3.20;;;;;;;;;;5020441;28;20120;-78
2022/06/16 02:46:58;;;;;;;21.30;3.45;;;;;;;;;;5027092;28;20511;-79
2022/06/16 02:49:24;;;;;;;17.75;2.85;;;;;;;;;;5009208;28;20149;-78
2022/06/16 02:52:02;;;;;;;17.13;4.05;;;;;;;;;;5027098;28;20021;-79
2022/06/16 02:54:30;;;;;;;18.85;3.33;;;;;;;;;;5020441;28;20042;-79
2022/06/16 02:57:01;;;;;;;17.27;3.03;;;;;;;;;;5026561;28;20040;-79
2022/06/16 02:59:30;;;;;;;16.58;3.58;;;;;;;;;;5014119;28;20084;-79
2022/06/16 03:02:01;;;;;;;16.90;3.33;;;;;;;;;;5018736;28;20487;-79
2022/06/16 03:04:35;;;;;;;15.95;3.08;;;;;;;;;;5011416;28;20037;-79
2022/06/16 03:07:01;;;;;;;17.60;4.05;;;;;;;;;;5023933;28;20041;-79
2022/06/16 03:09:27;;;;;;;17.73;3.15;;;;;;;;;;5029719;28;20029;-79
2022/06/16 03:11:53;;;;;;;14.50;2.90;;;;;;;;;;5032413;28;20382;-79
2022/06/16 03:14:19;;;;;;;15.93;3.38;;;;;;;;;;5026584;28;20033;-79
2022/06/16 03:16:45;;;;;;;12.13;3.47;;;;;;;;;;5029776;28;20088;-79
2022/06/16 03:19:11;;;;;;;15.93;3.38;;;;;;;;;;5032330;28;20064;-79
2022/06/16 03:21:37;;;;;;;13.63;3.15;;;;;;;;;;5031711;28;20068;-79
2022/06/16 03:24:04;;;;;;;13.38;2.50;;;;;;;;;;5021023;28;20484;-79
2022/06/16 03:26:30;;;;;;;14.93;3.95;;;;;;;;;;5030926;28;20080;-79
2022/06/16 03:28:56;;;;;;;10.30;2.65;;;;;;;;;;5031462;28;20030;-79
2022/06/16 03:31:22;;;;;;;19.08;3.35;;;;;;;;;;5029725;28;20754;-79
2022/06/16 03:33:48;;;;;;;18.35;3.55;;;;;;;;;;5029361;28;20029;-79
2022/06/16 03:36:15;;;;;;;13.65;2.88;;;;;;;;;;5027729;28;20077;-79
2022/06/16 03:38:43;;;;;;;18.00;3.30;;;;;;;;;;5025742;28;20037;-79
2022/06/16 03:41:10;;;;;;;14.88;3.40;;;;;;;;;;5025372;28;20096;-79
2022/06/16 03:43:36;;;;;;;12.70;2.90;;;;;;;;;;5028409;28;20042;-78
2022/06/16 03:46:02;;;;;;;13.45;2.58;;;;;;;;;;5032096;28;20025;-79
2022/06/16 03:48:29;;;;;;;17.92;3.42;;;;;;;;;;5025979;28;20025;-79
2022/06/16 03:50:55;;;;;;;16.52;3.72;;;;;;;;;;5026225;28;20034;-79
2022/06/16 03:53:21;;;;;;;12.70;3.15;;;;;;;;;;5024538;28;20097;-79
2022/06/16 03:55:47;;;;;;;13.25;2.80;;;;;;;;;;5019114;28;20476;-79
2022/06/16 03:58:13;;;;;;;14.52;3.35;;;;;;;;;;5016008;28;20061;-79
2022/06/16 04:00:40;;;;;;;17.02;3.70;;;;;;;;;;5032368;28;20434;-79
2022/06/16 04:05:51;;;;;;;23.75;4.55;;;;;;;;;;5021496;28;20060;-79
2022/06/16 04:08:19;;;;;;;14.13;3.35;;;;;;;;;;5019430;28;20076;-79
2022/06/16 04:10:46;;;;;;;16.42;3.60;;;;;;;;;;5027847;28;20033;-79
2022/06/16 04:13:12;;;;;;;16.40;3.65;;;;;;;;;;5030797;28;20036;-79
2022/06/16 04:15:38;;;;;;;16.90;3.28;;;;;;;;;;5031463;28;20071;-79
2022/06/16 04:18:05;;;;;;;13.98;3.70;;;;;;;;;;5031625;28;20108;-79
2022/06/16 04:20:31;;;;;;;17.65;4.07;;;;;;;;;;5021018;28;20033;-79
2022/06/16 04:22:57;;;;;;;13.02;4.25;;;;;;;;;;5021235;28;20585;-78
2022/06/16 04:25:30;;;;;;;18.80;3.78;;;;;;;;;;5030517;28;20072;-79
2022/06/16 04:27:56;;;;;;;12.00;3.85;;;;;;;;;;5031535;28;20024;-79
2022/06/16 04:30:22;;;;;;;14.40;3.10;;;;;;;;;;5029246;28;20033;-79
2022/06/16 04:32:48;;;;;;;13.10;4.10;;;;;;;;;;5016215;28;20072;-79
2022/06/16 04:35:14;;;;;;;13.43;3.75;;;;;;;;;;5031855;28;20052;-79
2022/06/16 04:37:40;;;;;;;15.10;3.42;;;;;;;;;;5028694;28;20030;-79
2022/06/16 04:40:07;;;;;;;9.55;3.25;;;;;;;;;;5023829;28;20041;-79
2022/06/16 04:42:33;;;;;;;13.27;3.30;;;;;;;;;;5013663;28;20049;-79
2022/06/16 04:44:59;;;;;;;16.58;3.47;;;;;;;;;;5023395;28;20042;-79
2022/06/16 04:47:25;;;;;;;20.88;3.90;;;;;;;;;;5026560;28;20087;-79
2022/06/16 04:49:51;;;;;;;19.58;3.83;;;;;;;;;;5031254;28;20137;-79
2022/06/16 04:52:17;;;;;;;12.73;3.20;;;;;;;;;;5020809;28;20129;-79
2022/06/16 04:54:44;;;;;;;24.75;3.83;;;;;;;;;;5021467;28;20033;-79
2022/06/16 04:57:10;;;;;;;16.45;3.67;;;;;;;;;;5014802;28;20018;-79
2022/06/16 04:59:37;;;;;;;18.67;3.40;;;;;;;;;;5021855;28;20065;-79
2022/06/16 05:02:03;;;;;;;22.20;4.10;;;;;;;;;;5029711;28;20029;-79
2022/06/16 05:04:29;;;;;;;14.40;4.07;;;;;;;;;;5030615;28;21033;-79
2022/06/16 05:06:56;;;;;;;20.13;4.03;;;;;;;;;;5022456;28;20148;-79
2022/06/16 05:09:23;;;;;;;17.70;4.00;;;;;;;;;;5030955;28;20120;-79
2022/06/16 05:11:49;;;;;;;17.05;5.10;;;;;;;;;;5020061;28;20021;-79
2022/06/16 05:14:15;;;;;;;21.38;5.38;;;;;;;;;;5025847;28;20041;-79
2022/06/16 05:16:41;;;;;;;19.88;3.80;;;;;;;;;;5012187;28;20084;-79
2022/06/16 05:19:07;;;;;;;16.77;3.33;;;;;;;;;;5021882;28;20033;-79
2022/06/16 05:21:33;;;;;;;18.00;3.25;;;;;;;;;;5024632;28;20064;-79
2022/06/16 05:23:59;;;;;;;14.55;3.33;;;;;;;;;;5024429;28;20128;-79
2022/06/16 05:26:25;;;;;;;18.40;3.13;;;;;;;;;;5023498;28;20145;-79
2022/06/16 05:28:51;;;;;;;21.27;3.30;;;;;;;;;;5029307;28;20510;-79
2022/06/16 05:31:17;;;;;;;12.63;2.53;;;;;;;;;;5027431;28;20036;-79
2022/06/16 05:33:44;;;;;;;16.48;4.05;;;;;;;;;;5021411;28;20057;-78
2022/06/16 05:36:11;;;;;;;21.90;4.13;;;;;;;;;;5018023;28;20029;-78
2022/06/16 05:38:40;;;;;;;19.40;3.38;;;;;;;;;;5023039;28;20056;-79
2022/06/16 05:41:10;;;;;;;17.55;3.08;;;;;;;;;;5017841;28;20117;-80
2022/06/16 05:43:36;;;;;;;22.00;4.80;;;;;;;;;;5027630;28;20041;-79
2022/06/16 05:46:04;;;;;;;22.48;3.72;;;;;;;;;;5024012;28;20548;-79
2022/06/16 05:48:30;;;;;;;16.92;3.80;;;;;;;;;;5023467;28;20033;-80
2022/06/16 05:50:56;;;;;;;16.52;4.65;;;;;;;;;;5023380;28;20030;-80
2022/06/16 05:53:22;;;;;;;15.98;3.63;;;;;;;;;;5017927;28;20140;-79
2022/06/16 05:55:49;;;;;;;20.67;4.85;;;;;;;;;;5027962;28;20169;-80
2022/06/16 05:58:15;;;;;;;23.83;4.32;;;;;;;;;;5020362;28;20041;-80
2022/06/16 06:00:41;;;;;;;19.20;4.00;;;;;;;;;;5020895;28;20025;-80
2022/06/16 06:03:07;;;;;;;19.30;3.60;;;;;;;;;;5017820;28;20577;-80
2022/06/16 06:05:33;;;;;;;14.07;3.13;;;;;;;;;;5028210;28;20045;-80
2022/06/16 06:16:28;;;;;;;19.65;3.78;;;;;;;;;;5016954;28;20175;-77
2022/06/16 06:18:55;;;;;;;17.88;4.40;;;;;;;;;;5026886;28;20029;-80
2022/06/16 06:21:58;;;;;;;16.85;3.53;;;;;;;;;;5021499;28;20033;-80
2022/06/16 06:24:07;;;;;;;17.02;3.53;;;;;;;;;;5024853;28;20409;-80
2022/06/16 06:26:33;;;;;;;15.23;3.33;;;;;;;;;;5026113;28;20068;-79
2022/06/16 06:28:59;;;;;;;17.08;3.38;;;;;;;;;;5019735;28;20030;-80
2022/06/16 06:31:25;;;;;;;12.45;3.50;;;;;;;;;;5018681;28;20032;-80
2022/06/16 06:33:51;;;;;;;22.02;4.03;;;;;;;;;;5025276;28;20562;-79
2022/06/16 06:36:17;;;;;;;17.33;2.95;;;;;;;;;;5025061;28;20069;-80
2022/06/16 06:38:43;;;;;;;22.27;3.95;;;;;;;;;;5014881;28;20041;-80
2022/06/16 06:41:09;;;;;;;21.63;3.53;;;;;;;;;;5023110;28;20033;-80
2022/06/16 06:43:36;;;;;;;15.50;3.60;;;;;;;;;;5026119;28;20066;-80
2022/06/16 06:46:02;;;;;;;13.60;3.03;;;;;;;;;;5020807;28;20037;-80
2022/06/16 06:48:28;;;;;;;11.88;2.95;;;;;;;;;;5025889;28;20037;-80
2022/06/16 06:50:54;;;;;;;16.23;3.92;;;;;;;;;;5015017;28;20525;-80
2022/06/16 06:53:20;;;;;;;13.05;2.70;;;;;;;;;;5027854;28;20104;-80
2022/06/16 06:55:47;;;;;;;16.67;2.75;;;;;;;;;;5028207;28;20038;-80
2022/06/16 06:58:18;;;;;;;16.60;3.55;;;;;;;;;;5029327;28;20026;-80
2022/06/16 07:00:44;;;;;;;16.27;4.22;;;;;;;;;;5024795;28;20033;-80
2022/06/16 07:03:10;;;;;;;18.15;4.30;;;;;;;;;;5032336;28;20029;-80
2022/06/16 07:05:37;;;;;;;16.73;4.00;;;;;;;;;;5030573;28;20073;-80
2022/06/16 07:08:03;;;;;;;15.38;3.88;;;;;;;;;;5028106;28;20119;-80
2022/06/16 07:10:29;;;;;;;13.35;3.25;;;;;;;;;;5022919;28;20380;-80
2022/06/16 07:12:55;;;;;;;22.33;3.70;;;;;;;;;;5023520;28;20026;-80
2022/06/16 07:15:22;;;;;;;16.73;3.70;;;;;;;;;;5023228;28;20036;-80
2022/06/16 07:17:48;;;;;;;18.30;3.70;;;;;;;;;;5031083;28;20482;-80
2022/06/16 07:20:16;;;;;;;18.85;3.65;;;;;;;;;;5025754;28;20075;-80
2022/06/16 07:22:43;;;;;;;21.38;4.35;;;;;;;;;;5030431;28;20029;-78
2022/06/16 07:25:09;;;;;;;15.65;3.85;;;;;;;;;;5023038;28;20060;-80
2022/06/16 07:27:35;;;;;;;16.02;3.30;;;;;;;;;;5027682;28;20026;-80
2022/06/16 07:30:01;;;;;;;13.57;3.20;;;;;;;;;;5025242;28;20108;-80
2022/06/16 07:32:27;;;;;;;15.23;3.08;;;;;;;;;;5032396;28;20026;-78
2022/06/16 07:34:53;;;;;;;17.80;3.70;;;;;;;;;;5032475;28;20037;-78
2022/06/16 07:37:20;;;;;;;15.98;3.58;;;;;;;;;;5020175;28;20101;-80
2022/06/16 07:39:46;;;;;;;13.93;3.40;;;;;;;;;;5032130;28;20048;-81
2022/06/16 07:42:12;;;;;;;13.90;3.67;;;;;;;;;;5026405;28;20072;-78
2022/06/16 07:44:38;;;;;;;20.40;3.72;;;;;;;;;;5027598;28;20038;-78
2022/06/16 07:47:05;;;;;;;15.32;3.95;;;;;;;;;;5023212;28;20025;-78
2022/06/16 07:49:32;;;;;;;14.57;3.75;;;;;;;;;;5031616;28;20419;-78
2022/06/16 07:51:58;;;;;;;13.27;3.38;;;;;;;;;;5025996;28;20445;-78
2022/06/16 07:54:25;;;;;;;16.02;3.60;;;;;;;;;;5030073;28;20100;-80
2022/06/16 07:56:51;;;;;;;13.30;2.60;;;;;;;;;;5015127;28;20030;-80
2022/06/16 07:59:17;;;;;;;10.73;2.40;;;;;;;;;;5021225;28;20079;-78
2022/06/16 08:01:43;;;;;;;10.68;3.13;;;;;;;;;;5030357;28;20037;-78
2022/06/16 08:04:09;;;;;;;16.05;3.78;;;;;;;;;;5033994;28;20048;-78
2022/06/16 08:06:36;;;;;;;13.60;3.88;;;;;;;;;;5022911;28;20061;-78
2022/06/16 08:09:04;;;;;;;17.20;3.72;;;;;;;;;;5034833;28;20064;-78
2022/06/16 08:14:15;;;;;;;10.88;2.80;;;;;;;;;;5028390;28;20052;-78
2022/06/16 08:16:41;;;;;;;13.55;3.10;;;;;;;;;;5025543;28;20124;-78
2022/06/16 08:19:07;;;;;;;13.90;3.20;;;;;;;;;;5030484;28;20694;-78
2022/06/16 08:21:33;;;;;;;12.00;3.05;;;;;;;;;;5029881;28;20029;-78
2022/06/16 08:23:59;;;;;;;25.90;4.55;;;;;;;;;;5022087;28;20041;-78
2022/06/16 08:26:25;;;;;;;17.13;4.13;;;;;;;;;;5029430;28;20036;-78
2022/06/16 08:28:53;;;;;;;11.80;3.17;;;;;;;;;;5031884;28;20056;-78
2022/06/16 08:31:20;;;;;;;17.73;3.40;;;;;;;;;;5030083;28;20642;-78
2022/06/16 08:33:46;;;;;;;13.88;3.38;;;;;;;;;;5023580;28;20037;-78
2022/06/16 08:36:12;;;;;;;15.05;3.15;;;;;;;;;;5018692;28;20622;-78
2022/06/16 08:38:38;;;;;;;18.98;3.53;;;;;;;;;;5026668;28;20041;-78
2022/06/16 08:41:12;;;;;;;16.85;3.88;;;;;;;;;;5028398;28;20033;-78
2022/06/16 08:44:03;;;;;;;12.57;3.45;;;;;;;;;;5017866;28;20550;-78
2022/06/16 08:46:33;;;;;;;15.27;3.40;;;;;;;;;;5025094;28;20043;-78
2022/06/16 08:49:05;;;;;;;14.07;3.67;;;;;;;;;;5020388;28;20072;-78
2022/06/16 08:51:53;;;;;;;14.90;3.35;;;;;;;;;;5028426;28;20028;-78
2022/06/16 08:54:22;;;;;;;18.35;3.58;;;;;;;;;;5028973;28;20034;-78
2022/06/16 08:57:07;;;;;;;14.27;3.10;;;;;;;;;;5030913;28;20864;-79
2022/06/16 08:59:46;;;;;;;20.08;3.08;;;;;;;;;;5014814;28;20077;-78
2022/06/16 09:02:12;;;;;;;14.93;4.00;;;;;;;;;;5018876;28;20459;-78
2022/06/16 09:04:43;;;;;;;15.02;3.33;;;;;;;;;;5026688;28;20040;-78
2022/06/16 09:07:44;;;;;;;13.73;3.30;;;;;;;;;;5017567;28;20985;-78
2022/06/16 09:10:16;;;;;;;;;;;;;;;;;;5027483;28;20628;-78
2022/06/16 09:12:48;;;;;;;12.23;2.65;;;;;;;;;;5019248;28;19909;-78
2022/06/16 09:15:22;;;;;;;16.13;3.17;;;;;;;;;;5028080;28;20026;-78
2022/06/16 09:17:51;;;;;;;10.65;2.53;;;;;;;;;;5029769;28;20025;-78
2022/06/16 09:20:20;;;;;;;13.25;3.10;;;;;;;;;;5020587;28;20112;-78
2022/06/16 09:23:05;;;;;;;11.70;3.13;;;;;;;;;;5026669;28;20057;-78
2022/06/16 09:25:51;;;;;;;18.02;3.40;;;;;;;;;;5019111;28;20167;-78
2022/06/16 09:28:43;;;;;;;13.57;3.15;;;;;;;;;;5029445;28;20065;-78
2022/06/16 09:31:13;;;;;;;10.52;2.95;;;;;;;;;;5019608;28;20133;-78
2022/06/16 09:33:40;;;;;;;20.55;4.40;;;;;;;;;;5025382;28;20125;-78
2022/06/16 09:36:09;;;;;;;10.43;2.80;;;;;;;;;;5027835;28;20810;-78
2022/06/16 09:38:54;;;;;;;12.27;3.40;;;;;;;;;;5019394;28;20092;-78
2022/06/16 09:44:24;;;;;;;13.57;3.70;;;;;;;;;;5026653;28;20498;-78
2022/06/16 09:46:53;;;;;;;12.77;3.08;;;;;;;;;;5018512;28;20029;-79
2022/06/16 09:49:30;;;;;;;11.68;3.05;;;;;;;;;;5022702;28;20057;-79
2022/06/16 09:52:03;;;;;;;16.20;3.17;;;;;;;;;;5024373;28;20027;-78
2022/06/16 09:54:36;;;;;;;12.00;3.17;;;;;;;;;;5025086;28;20047;-78
2022/06/16 09:57:05;;;;;;;11.90;2.95;;;;;;;;;;5027597;28;20025;-78
2022/06/16 09:59:55;;;;;;;13.25;2.95;;;;;;;;;;5017233;28;20042;-78
2022/06/16 10:02:22;;;;;;;11.60;2.85;;;;;;;;;;5017726;28;20067;-78
2022/06/16 10:04:52;;;;;;;12.93;3.15;;;;;;;;;;5023515;28;20040;-78
2022/06/16 10:07:18;;;;;;;9.30;2.67;;;;;;;;;;5019244;28;20030;-79
2022/06/16 10:09:53;;;;;;;16.58;3.13;;;;;;;;;;5021122;28;20084;-79
2022/06/16 10:12:28;;;;;;;9.70;2.80;;;;;;;;;;5029038;28;20033;-79
2022/06/16 10:15:05;;;;;;;9.75;2.90;;;;;;;;;;5022278;28;20021;-78
2022/06/16 10:17:32;;;;;;;16.95;3.53;;;;;;;;;;5027467;28;20032;-79
2022/06/16 10:19:59;;;;;;;9.68;2.97;;;;;;;;;;5027775;28;20033;-78
2022/06/16 10:22:25;;;;;;;13.55;3.17;;;;;;;;;;5029309;28;20497;-79
2022/06/16 10:24:51;;;;;;;11.20;2.92;;;;;;;;;;5022670;28;20061;-78
2022/06/16 10:27:18;;;;;;;11.52;2.70;;;;;;;;;;5028603;28;20056;-78
2022/06/16 10:29:52;;;;;;;12.05;2.67;;;;;;;;;;5016099;28;20037;-78
2022/06/16 10:32:19;;;;;;;11.30;2.90;;;;;;;;;;5023460;28;20349;-78
2022/06/16 10:34:50;;;;;;;12.05;3.15;;;;;;;;;;5026482;28;20049;-78
2022/06/16 10:37:19;;;;;;;14.18;3.45;;;;;;;;;;5026026;28;20041;-78
2022/06/16 10:39:54;;;;;;;12.48;2.72;;;;;;;;;;5023470;28;20055;-79
2022/06/16 10:42:26;;;;;;;14.15;3.65;;;;;;;;;;5024707;28;20029;-78
2022/06/16 10:44:52;;;;;;;12.02;2.53;;;;;;;;;;5028214;28;20036;-79
2022/06/16 10:47:24;;;;;;;13.13;2.78;;;;;;;;;;5019724;28;20030;-78
2022/06/16 10:49:51;;;;;;;11.27;2.38;;;;;;;;;;5027228;28;20071;-78
2022/06/16 10:52:26;;;;;;;17.30;3.72;;;;;;;;;;5024136;28;20087;-79
2022/06/16 10:54:58;;;;;;;15.15;3.10;;;;;;;;;;5018908;28;20060;-78
2022/06/16 10:57:26;;;;;;;11.15;3.00;;;;;;;;;;5024010;28;20072;-79
2022/06/16 10:59:56;;;;;;;12.88;2.80;;;;;;;;;;5026445;28;20108;-79
2022/06/16 11:02:27;;;;;;;12.93;2.33;;;;;;;;;;5015319;28;20033;-78
2022/06/16 11:05:02;;;;;;;19.47;2.93;;;;;;;;;;5026629;28;20061;-79
2022/06/16 11:07:29;;;;;;;14.05;2.53;;;;;;;;;;5015645;28;20030;-79
2022/06/16 11:10:01;;;;;;;11.73;2.78;;;;;;;;;;5026118;28;20092;-78
2022/06/16 11:12:27;;;;;;;13.15;3.25;;;;;;;;;;5021030;28;20037;-79
2022/06/16 11:14:55;;;;;;;11.38;2.92;;;;;;;;;;5031930;28;20036;-78
2022/06/16 11:17:21;;;;;;;15.63;2.88;;;;;;;;;;5028166;28;20084;-78
2022/06/16 11:20:08;;;;;;;12.25;2.95;;;;;;;;;;5028730;28;20479;-79
2022/06/16 11:22:40;;;;;;;13.70;3.15;;;;;;;;;;4998012;28;20038;-79
2022/06/16 11:25:06;;;;;;;12.27;2.58;;;;;;;;;;5016536;28;20364;-79
2022/06/16 11:27:49;;;;;;;11.95;3.00;;;;;;;;;;5024799;28;20560;-79
2022/06/16 11:30:29;;;;;;;8.85;2.50;;;;;;;;;;5029408;28;20041;-78
2022/06/16 11:32:55;;;;;;;9.93;2.33;;;;;;;;;;5026058;28;20033;-78
2022/06/16 11:35:25;;;;;;;9.77;2.22;;;;;;;;;;5028667;28;20116;-79
2022/06/16 11:37:59;;;;;;;12.35;2.50;;;;;;;;;;5019780;28;20034;-79
2022/06/16 11:40:51;;;;;;;9.02;2.42;;;;;;;;;;5023214;28;20068;-79
2022/06/16 11:43:22;;;;;;;15.20;2.45;;;;;;;;;;5022590;28;20045;-79
2022/06/16 11:45:51;;;;;;;13.90;2.75;;;;;;;;;;5022006;28;20034;-79
2022/06/16 11:48:35;;;;;;;13.18;2.92;;;;;;;;;;5023900;28;20041;-79
2022/06/16 11:51:10;;;;;;;15.98;2.63;;;;;;;;;;5021138;28;20038;-78
2022/06/16 11:53:39;;;;;;;13.40;2.47;;;;;;;;;;5028947;28;20041;-78
2022/06/16 11:56:05;;;;;;;12.23;2.20;;;;;;;;;;5028943;28;20046;-79
2022/06/16 11:58:52;;;;;;;15.98;3.13;;;;;;;;;;5028448;28;20611;-79
2022/06/16 12:01:21;;;;;;;12.30;2.72;;;;;;;;;;5041312;28;20131;-79
2022/06/16 12:03:56;;;;;;;11.05;2.75;;;;;;;;;;5027988;28;20034;-79
2022/06/16 12:06:32;;;;;;;10.95;2.20;;;;;;;;;;5017948;28;20029;-79
2022/06/16 12:09:02;;;;;;;8.98;2.38;;;;;;;;;;5016925;28;20030;-79
2022/06/16 12:11:48;;;;;;;9.77;1.95;;;;;;;;;;5034553;28;20081;-78
2022/06/16 12:14:14;;;;;;;9.93;2.30;;;;;;;;;;5024031;28;20105;-79
2022/06/16 12:16:52;;;;;;;12.20;2.72;;;;;;;;;;5024758;28;20080;-78
2022/06/16 12:19:50;;;;;;;12.57;2.08;;;;;;;;;;5027243;28;20069;-79
2022/06/16 12:22:21;;;;;;;13.52;2.33;;;;;;;;;;5018899;28;20068;-78
2022/06/16 12:25:00;;;;;;;8.43;2.00;;;;;;;;;;5020905;28;20076;-78
2022/06/16 12:27:29;;;;;;;10.38;3.03;;;;;;;;;;5030953;28;20033;-79
2022/06/16 12:30:01;;;;;;;10.30;1.70;;;;;;;;;;5019075;28;20033;-78
2022/06/16 12:32:52;;;;;;;6.95;1.77;;;;;;;;;;5026173;28;20026;-78
2022/06/16 12:35:47;;;;;;;11.48;2.13;;;;;;;;;;5026430;28;20116;-79
2022/06/16 12:38:49;;;;;;;13.25;2.55;;;;;;;;;;5012954;28;20056;-78
2022/06/16 12:41:30;;;;;;;10.88;2.15;;;;;;;;;;4986817;28;20052;-78
2022/06/16 12:43:56;;;;;;;;;;;;;;;;;;5024598;28;20054;-78
2022/06/16 12:46:26;;;;;;;12.25;2.20;;;;;;;;;;5033088;28;19924;-79
2022/06/16 12:49:00;;;;;;;14.55;2.35;;;;;;;;;;5026706;28;20049;-78
2022/06/16 12:51:36;;;;;;;14.00;2.50;;;;;;;;;;5027829;28;20464;-79
2022/06/16 12:54:04;;;;;;;9.07;2.17;;;;;;;;;;5028080;28;20120;-78
2022/06/16 12:56:33;;;;;;;14.25;2.70;;;;;;;;;;5020879;28;20053;-78
2022/06/16 12:59:05;;;;;;;9.25;1.77;;;;;;;;;;5024521;28;20668;-78
2022/06/16 13:01:32;;;;;;;6.43;1.77;;;;;;;;;;5035227;28;20029;-79
2022/06/16 13:04:03;;;;;;;7.35;1.90;;;;;;;;;;5026112;28;20116;-78
2022/06/16 13:06:30;;;;;;;7.65;2.40;;;;;;;;;;5030672;28;20025;-79
2022/06/16 13:08:58;;;;;;;13.10;2.10;;;;;;;;;;5034328;28;20029;-78
2022/06/16 13:11:29;;;;;;;8.82;2.50;;;;;;;;;;5029019;28;20644;-79
2022/06/16 13:13:55;;;;;;;;;;;;;;;;;;5030491;28;20037;-78
2022/06/16 13:16:25;;;;;;;9.52;1.88;;;;;;;;;;5029499;28;20363;-78
2022/06/16 13:19:01;;;;;;;17.95;2.20;;;;;;;;;;5026871;28;20693;-78
2022/06/16 13:21:35;;;;;;;10.15;2.17;;;;;;;;;;5028746;28;20080;-78
2022/06/16 13:24:21;;;;;;;10.38;2.20;;;;;;;;;;5026470;28;20033;-78
2022/06/16 13:27:04;;;;;;;10.02;2.03;;;;;;;;;;5021309;28;20118;-78
2022/06/16 13:29:40;;;;;;;6.55;1.90;;;;;;;;;;5022740;28;20030;-78
2022/06/16 13:32:20;;;;;;;7.22;1.80;;;;;;;;;;5016852;28;20021;-78
2022/06/16 13:34:54;;;;;;;6.85;1.73;;;;;;;;;;5022190;28;20117;-78
2022/06/16 13:37:33;;;;;;;8.80;2.35;;;;;;;;;;5021908;28;20143;-78
2022/06/16 13:40:08;;;;;;;9.05;1.85;;;;;;;;;;5021380;28;20037;-78
2022/06/16 13:42:46;;;;;;;9.18;2.22;;;;;;;;;;5033050;28;20030;-79
2022/06/16 13:45:12;;;;;;;9.95;2.10;;;;;;;;;;5018997;28;20833;-79
2022/06/16 13:47:45;;;;;;;12.32;2.88;;;;;;;;;;5030067;28;20049;-79
2022/06/16 13:50:22;;;;;;;9.32;2.25;;;;;;;;;;5019425;28;20045;-79
2022/06/16 13:52:58;;;;;;;10.93;2.00;;;;;;;;;;5018793;28;20037;-78
2022/06/16 13:55:24;;;;;;;10.25;2.15;;;;;;;;;;5016549;28;20037;-79
2022/06/16 13:58:17;;;;;;;8.55;2.10;;;;;;;;;;5021742;28;20394;-78
2022/06/16 14:00:44;;;;;;;8.65;2.03;;;;;;;;;;5024495;28;20060;-79
2022/06/16 14:03:21;;;;;;;11.90;2.33;;;;;;;;;;5030800;28;20041;-79
2022/06/16 14:05:55;;;;;;;13.65;2.25;;;;;;;;;;5035784;28;20632;-78
2022/06/16 14:08:22;;;;;;;9.98;1.85;;;;;;;;;;5029796;28;20033;-78
2022/06/16 14:10:53;;;;;;;13.23;2.38;;;;;;;;;;5028665;28;20032;-78
2022/06/16 14:13:23;;;;;;;9.30;2.00;;;;;;;;;;5026353;28;20082;-78
2022/06/16 14:15:49;;;;;;;14.05;1.80;;;;;;;;;;5026564;28;20037;-78
2022/06/16 14:18:26;;;;;;;10.63;2.30;;;;;;;;;;5024366;28;20095;-78
2022/06/16 14:20:57;;;;;;;12.70;2.20;;;;;;;;;;5015486;28;20060;-78
2022/06/16 14:23:26;;;;;;;9.45;1.85;;;;;;;;;;5027424;28;20120;-78
2022/06/16 14:25:55;;;;;;;10.10;2.40;;;;;;;;;;5022097;28;20041;-78
2022/06/16 14:28:26;;;;;;;14.75;2.40;;;;;;;;;;5026352;28;20072;-78
2022/06/16 14:30:57;;;;;;;10.30;2.08;;;;;;;;;;5025667;28;20025;-78
2022/06/16 14:33:25;;;;;;;11.15;1.90;;;;;;;;;;5019656;28;20037;-78
2022/06/16 14:35:55;;;;;;;9.15;2.05;;;;;;;;;;5024313;28;20061;-78
2022/06/16 14:38:21;;;;;;;13.07;2.13;;;;;;;;;;5026103;28;20470;-78
2022/06/16 14:40:50;;;;;;;11.25;1.95;;;;;;;;;;5027882;28;20029;-78
2022/06/16 14:43:19;;;;;;;7.05;2.25;;;;;;;;;;5021181;28;20077;-78
2022/06/16 14:45:47;;;;;;;7.63;2.17;;;;;;;;;;5023255;28;20029;-78
2022/06/16 14:48:21;;;;;;;9.07;3.30;;;;;;;;;;5012957;28;20034;-78
2022/06/16 14:50:50;;;;;;;7.50;1.98;;;;;;;;;;5024336;28;20083;-79
2022/06/16 14:53:19;;;;;;;6.47;2.22;;;;;;;;;;5020565;28;20026;-78
2022/06/16 14:55:50;;;;;;;7.85;2.25;;;;;;;;;;5022901;28;20044;-78
2022/06/16 14:58:17;;;;;;;10.80;2.00;;;;;;;;;;5026028;28;20041;-78
2022/06/16 15:00:45;;;;;;;8.95;2.22;;;;;;;;;;5025538;28;20029;-78
2022/06/16 15:03:17;;;;;;;10.30;2.55;;;;;;;;;;5017614;28;20042;-78
2022/06/16 15:05:44;;;;;;;8.25;2.47;;;;;;;;;;5021664;28;20037;-79
2022/06/16 15:08:12;;;;;;;8.63;2.95;;;;;;;;;;5030589;28;20018;-78
2022/06/16 15:10:38;;;;;;;6.15;2.05;;;;;;;;;;5032860;28;20037;-78